createdAt,value
2022-09-20T00:02:29.627Z,4.10
2022-09-20T00:04:59.676Z,3.28
2022-09-20T00:07:26.800Z,3.15
2022-09-20T00:09:56.273Z,2.45
2022-09-20T00:12:23.748Z,2.65
2022-09-20T00:14:53.333Z,3.22
2022-09-20T00:17:20.521Z,5.65
2022-09-20T00:19:47.880Z,4.05
2022-09-20T00:22:14.906Z,3.88
2022-09-20T00:24:48.842Z,2.47
2022-09-20T00:27:23.994Z,3.85
2022-09-20T00:29:51.039Z,4.80
2022-09-20T00:32:32.865Z,7.03
2022-09-20T00:35:00.123Z,2.88
2022-09-20T00:37:27.273Z,2.42
2022-09-20T00:40:14.397Z,3.78
2022-09-20T00:42:41.953Z,3.58
2022-09-20T00:45:29.049Z,2.85
2022-09-20T00:48:30.856Z,3.22
2022-09-20T00:51:07.826Z,6.18
2022-09-20T00:53:45.960Z,4.68
2022-09-20T00:56:31.224Z,6.30
2022-09-20T00:59:16.862Z,2.30
2022-09-20T01:01:48.340Z,5.18
2022-09-20T01:04:29.622Z,4.85
2022-09-20T01:07:10.209Z,3.10
2022-09-20T01:09:37.654Z,5.70
2022-09-20T01:12:12.188Z,4.88
2022-09-20T01:14:45.066Z,4.00
2022-09-20T01:17:13.848Z,4.32
2022-09-20T01:19:53.064Z,4.65
2022-09-20T01:22:31.801Z,4.97
2022-09-20T01:25:14.001Z,4.70
2022-09-20T01:27:49.753Z,4.82
2022-09-20T01:30:21.948Z,4.75
2022-09-20T01:33:11.368Z,6.28
2022-09-20T01:35:41.224Z,7.18
2022-09-20T01:38:11.166Z,7.30
2022-09-20T01:40:48.403Z,5.80
2022-09-20T01:43:40.789Z,5.63
2022-09-20T01:46:34.322Z,5.55
2022-09-20T01:49:46.400Z,6.70
2022-09-20T01:52:49.026Z,5.43
2022-09-20T01:55:45.005Z,4.72
2022-09-20T01:59:22.493Z,5.60
2022-09-20T02:01:53.657Z,5.97
2022-09-20T02:04:42.106Z,6.25
2022-09-20T02:07:46.550Z,4.70
2022-09-20T02:10:16.782Z,3.50
2022-09-20T02:13:03.834Z,2.88
2022-09-20T02:16:04.899Z,6.93
2022-09-20T02:19:06.361Z,4.55
2022-09-20T02:22:16.763Z,4.25
2022-09-20T02:24:52.896Z,4.65
2022-09-20T02:27:25.817Z,3.72
2022-09-20T02:30:19.247Z,5.78
2022-09-20T02:33:08.459Z,5.27
2022-09-20T02:35:41.493Z,3.88
2022-09-20T02:38:22.267Z,5.90
2022-09-20T02:41:16.717Z,3.47
2022-09-20T02:46:22.023Z,4.32
2022-09-20T02:49:13.117Z,4.88
2022-09-20T02:52:04.799Z,7.63
2022-09-20T02:54:54.030Z,4.57
2022-09-20T02:57:33.459Z,6.75
2022-09-20T03:00:29.964Z,6.00
2022-09-20T03:03:13.501Z,3.58
2022-09-20T03:06:05.654Z,3.67
2022-09-20T03:09:09.853Z,4.32
2022-09-20T03:12:14.338Z,3.58
2022-09-20T03:17:45.815Z,5.40
2022-09-20T03:21:00.093Z,7.18
2022-09-20T03:23:52.390Z,4.07
2022-09-20T03:26:40.785Z,6.68
2022-09-20T03:29:46.411Z,7.20
2022-09-20T03:32:19.864Z,8.25
2022-09-20T03:35:14.813Z,7.43
2022-09-20T03:38:19.917Z,7.93
2022-09-20T03:40:59.139Z,7.78
2022-09-20T03:43:46.519Z,8.32
2022-09-20T03:46:21.321Z,9.73
2022-09-20T03:49:31.373Z,7.95
2022-09-20T03:52:35.753Z,9.82
2022-09-20T03:55:38.451Z,8.15
2022-09-20T03:58:25.595Z,9.15
2022-09-20T04:01:16.403Z,9.30
2022-09-20T04:04:04.595Z,10.00
2022-09-20T04:06:37.709Z,8.98
2022-09-20T04:09:28.227Z,9.00
2022-09-20T04:12:33.223Z,13.65
2022-09-20T04:15:50.298Z,9.43
2022-09-20T04:18:43.511Z,10.65
2022-09-20T04:21:32.587Z,9.02
2022-09-20T04:24:05.094Z,8.85
2022-09-20T04:26:43.307Z,6.72
2022-09-20T04:29:29.758Z,7.40
2022-09-20T04:32:19.587Z,6.38
2022-09-20T04:37:46.829Z,7.63
2022-09-20T04:40:26.242Z,9.05
2022-09-20T04:43:15.295Z,4.55
2022-09-20T04:46:00.619Z,5.68
2022-09-20T04:48:36.459Z,5.72
2022-09-20T04:51:34.705Z,5.93
2022-09-20T04:57:55.910Z,5.65
2022-09-20T05:00:26.265Z,4.80
2022-09-20T05:03:12.709Z,5.82
2022-09-20T05:05:48.905Z,6.78
2022-09-20T05:08:49.281Z,3.92
2022-09-20T05:11:45.220Z,4.35
2022-09-20T05:14:48.011Z,3.92
2022-09-20T05:17:30.357Z,5.65
2022-09-20T05:20:37.660Z,3.78
2022-09-20T05:23:14.128Z,4.75
2022-09-20T05:26:05.616Z,4.90
2022-09-20T05:28:48.673Z,4.35
2022-09-20T05:31:20.378Z,5.03
2022-09-20T05:33:52.580Z,4.63
2022-09-20T05:36:25.762Z,5.85
2022-09-20T05:42:42.523Z,5.40
2022-09-20T05:45:45.402Z,4.28
2022-09-20T05:48:40.276Z,6.93
2022-09-20T05:54:07.470Z,6.47
2022-09-20T05:56:45.961Z,3.75
2022-09-20T05:59:57.838Z,5.75
2022-09-20T06:02:58.222Z,5.70
2022-09-20T06:05:43.118Z,5.13
2022-09-20T06:08:22.850Z,4.43
2022-09-20T06:10:55.746Z,3.97
2022-09-20T06:14:08.101Z,4.78
2022-09-20T06:17:02.708Z,4.72
2022-09-20T06:19:52.902Z,5.80
2022-09-20T06:25:45.302Z,4.05
2022-09-20T06:28:20.779Z,5.95
2022-09-20T06:30:55.629Z,3.65
2022-09-20T06:33:25.205Z,2.17
2022-09-20T06:35:59.439Z,5.13
2022-09-20T06:38:52.339Z,3.03
2022-09-20T06:41:20.333Z,4.65
2022-09-20T06:43:47.428Z,6.18
2022-09-20T06:46:39.957Z,5.03
2022-09-20T06:49:07.560Z,7.13
2022-09-20T06:51:38.602Z,3.08
2022-09-20T06:54:08.030Z,6.10
2022-09-20T06:56:36.166Z,6.45
2022-09-20T06:59:06.220Z,5.93
2022-09-20T07:01:33.754Z,5.88
2022-09-20T07:04:01.348Z,6.65
2022-09-20T07:06:28.369Z,7.45
2022-09-20T07:08:58.514Z,6.93
2022-09-20T07:11:30.236Z,6.32
2022-09-20T07:13:58.944Z,7.00
2022-09-20T07:16:41.231Z,7.57
2022-09-20T07:19:08.651Z,7.60
2022-09-20T07:21:57.667Z,6.95
2022-09-20T07:24:31.584Z,8.37
2022-09-20T07:27:03.116Z,7.53
2022-09-20T07:29:30.852Z,8.07
2022-09-20T07:31:58.491Z,6.90
2022-09-20T07:34:37.518Z,8.50
2022-09-20T07:37:05.063Z,7.45
2022-09-20T07:39:32.254Z,8.23
2022-09-20T07:42:08.584Z,4.82
2022-09-20T07:44:35.984Z,4.95
2022-09-20T07:47:03.288Z,4.90
2022-09-20T07:49:39.912Z,5.00
2022-09-20T07:52:14.924Z,6.57
2022-09-20T07:54:44.730Z,4.32
2022-09-20T07:57:12.514Z,6.10
2022-09-20T07:59:39.552Z,4.78
2022-09-20T08:02:09.653Z,7.35
2022-09-20T08:04:37.224Z,5.70
2022-09-20T08:07:09.538Z,5.15
2022-09-20T08:09:36.714Z,5.78
2022-09-20T08:14:51.442Z,5.30
2022-09-20T08:17:18.953Z,4.72
2022-09-20T08:19:45.997Z,7.35
2022-09-20T08:22:15.301Z,4.95
2022-09-20T08:24:42.780Z,2.95
2022-09-20T08:27:09.910Z,3.75
2022-09-20T08:29:37.205Z,4.40
2022-09-20T08:32:04.882Z,3.08
2022-09-20T08:34:32.075Z,5.55
2022-09-20T08:36:59.266Z,3.55
2022-09-20T08:42:34.922Z,6.40
2022-09-20T08:45:08.083Z,6.93
2022-09-20T08:47:39.735Z,7.18
2022-09-20T08:50:10.147Z,4.80
2022-09-20T08:52:39.709Z,6.25
2022-09-20T08:55:27.809Z,6.20
2022-09-20T08:57:59.884Z,8.35
2022-09-20T09:00:33.001Z,4.93
2022-09-20T09:03:05.987Z,4.70
2022-09-20T09:05:38.713Z,7.68
2022-09-20T09:08:17.948Z,9.43
2022-09-20T09:10:57.719Z,6.28
2022-09-20T09:13:33.442Z,5.15
2022-09-20T09:16:06.404Z,4.38
2022-09-20T09:18:37.882Z,6.85
2022-09-20T09:21:07.544Z,5.38
2022-09-20T09:23:41.671Z,4.75
2022-09-20T09:26:21.921Z,4.40
2022-09-20T09:29:09.119Z,6.95
2022-09-20T09:31:36.483Z,4.32
2022-09-20T09:34:04.055Z,5.18
2022-09-20T09:36:31.517Z,6.88
2022-09-20T09:39:27.475Z,5.18
2022-09-20T09:41:56.119Z,4.50
2022-09-20T09:44:24.599Z,6.50
2022-09-20T09:46:52.311Z,5.20
2022-09-20T09:49:20.912Z,6.10
2022-09-20T09:52:06.533Z,5.72
2022-09-20T09:54:37.564Z,5.90
2022-09-20T09:57:17.044Z,5.63
2022-09-20T10:00:06.810Z,6.40
2022-09-20T10:03:05.319Z,5.22
2022-09-20T10:05:33.355Z,5.45
2022-09-20T10:08:23.519Z,4.22
2022-09-20T10:11:19.327Z,5.30
2022-09-20T10:13:51.984Z,6.28
2022-09-20T10:16:53.104Z,5.88
2022-09-20T10:19:34.170Z,3.28
2022-09-20T10:22:07.379Z,5.07
2022-09-20T10:24:52.587Z,3.15
2022-09-20T10:27:41.676Z,3.80
2022-09-20T10:30:23.189Z,3.35
2022-09-20T10:33:13.815Z,4.95
2022-09-20T10:35:49.914Z,5.72
2022-09-20T10:38:23.809Z,14.18
2022-09-20T10:41:18.594Z,4.07
2022-09-20T10:43:51.875Z,2.55
2022-09-20T10:49:38.427Z,4.88
2022-09-20T10:52:24.151Z,2.40
2022-09-20T10:55:08.537Z,3.53
2022-09-20T10:57:54.401Z,3.35
2022-09-20T11:00:21.779Z,2.90
2022-09-20T11:03:07.433Z,3.42
2022-09-20T11:05:43.960Z,6.10
2022-09-20T11:08:21.100Z,4.03
2022-09-20T11:11:09.490Z,9.00
2022-09-20T11:13:58.517Z,3.67
2022-09-20T11:16:29.190Z,4.25
2022-09-20T11:19:09.037Z,2.55
2022-09-20T11:21:48.278Z,3.85
2022-09-20T11:24:43.087Z,2.92
2022-09-20T11:27:26.808Z,5.32
2022-09-20T11:30:00.577Z,6.05
2022-09-20T11:33:05.792Z,1.60
2022-09-20T11:35:52.989Z,5.78
2022-09-20T11:38:20.342Z,4.95
2022-09-20T11:41:02.670Z,4.22
2022-09-20T11:43:31.725Z,5.75
2022-09-20T11:46:04.884Z,3.47
2022-09-20T11:48:52.187Z,7.18
2022-09-20T11:51:55.439Z,15.10
2022-09-20T11:54:38.067Z,3.38
2022-09-20T11:57:15.731Z,2.65
2022-09-20T11:59:51.712Z,5.72
2022-09-20T12:02:32.490Z,3.15
2022-09-20T12:05:00.643Z,3.17
2022-09-20T12:07:41.875Z,2.90
2022-09-20T12:10:22.203Z,3.92
2022-09-20T12:13:00.496Z,2.65
2022-09-20T12:15:39.132Z,2.55
2022-09-20T12:18:27.522Z,6.00
2022-09-20T12:21:00.985Z,4.38
2022-09-20T12:23:43.510Z,4.43
2022-09-20T12:26:20.152Z,2.92
2022-09-20T12:28:50.405Z,11.35
2022-09-20T12:31:23.714Z,3.47
2022-09-20T12:34:02.921Z,1.95
2022-09-20T12:36:36.918Z,3.33
2022-09-20T12:39:19.219Z,2.78
2022-09-20T12:42:03.381Z,5.80
2022-09-20T12:44:39.827Z,4.78
2022-09-20T12:47:10.293Z,4.20
2022-09-20T12:49:50.278Z,14.50
2022-09-20T12:52:38.198Z,8.32
2022-09-20T12:55:10.257Z,7.43
2022-09-20T12:57:39.353Z,4.25
2022-09-20T13:00:08.628Z,4.70
2022-09-20T13:02:52.194Z,4.70
2022-09-20T13:05:37.410Z,3.35
2022-09-20T13:08:27.306Z,3.38
2022-09-20T13:11:06.840Z,4.38
2022-09-20T13:13:44.046Z,4.05
2022-09-20T13:16:19.193Z,4.97
2022-09-20T13:18:49.819Z,3.30
2022-09-20T13:21:20.116Z,4.65
2022-09-20T13:23:50.973Z,4.95
2022-09-20T13:26:25.699Z,4.30
2022-09-20T13:28:55.583Z,3.67
2022-09-20T13:31:31.965Z,4.68
2022-09-20T13:34:22.819Z,1.80
2022-09-20T13:36:56.748Z,3.72
2022-09-20T13:39:34.877Z,1.63
2022-09-20T13:42:10.366Z,4.10
2022-09-20T13:44:41.630Z,2.38
2022-09-20T13:47:31.417Z,2.22
2022-09-20T13:50:28.499Z,1.30
2022-09-20T13:52:58.268Z,2.20
2022-09-20T13:55:28.375Z,2.78
2022-09-20T13:57:57.469Z,2.60
2022-09-20T14:00:25.699Z,4.90
2022-09-20T14:02:55.128Z,4.05
2022-09-20T14:05:26.193Z,2.42
2022-09-20T14:07:54.054Z,3.25
2022-09-20T14:10:33.864Z,5.68
2022-09-20T14:13:08.016Z,5.72
2022-09-20T14:15:41.319Z,3.33
2022-09-20T14:18:16.012Z,3.90
2022-09-20T14:20:47.694Z,3.95
2022-09-20T14:23:23.879Z,4.13
2022-09-20T14:26:24.193Z,3.90
2022-09-20T14:28:54.265Z,6.20
2022-09-20T14:31:27.137Z,7.50
2022-09-20T14:34:04.823Z,3.10
2022-09-20T14:36:32.619Z,5.30
2022-09-20T14:39:04.905Z,3.22
2022-09-20T14:41:37.500Z,4.60
2022-09-20T14:44:17.223Z,5.68
2022-09-20T14:46:44.346Z,2.40
2022-09-20T14:49:27.018Z,5.05
2022-09-20T14:52:14.759Z,4.43
2022-09-20T14:54:42.381Z,4.95
2022-09-20T14:57:09.602Z,4.35
2022-09-20T14:59:41.933Z,4.30
2022-09-20T15:02:17.653Z,1.58
2022-09-20T15:04:57.233Z,4.43
2022-09-20T15:07:24.783Z,2.15
2022-09-20T15:09:54.100Z,5.90
2022-09-20T15:12:21.634Z,4.97
2022-09-20T15:14:51.529Z,2.25
2022-09-20T15:17:20.824Z,4.63
2022-09-20T15:19:51.746Z,4.35
2022-09-20T15:22:19.239Z,4.25
2022-09-20T15:24:48.652Z,3.90
2022-09-20T15:27:15.726Z,4.68
2022-09-20T15:29:43.068Z,4.50
2022-09-20T15:32:13.277Z,3.83
2022-09-20T15:34:40.439Z,5.05
2022-09-20T15:37:07.910Z,5.05
2022-09-20T15:39:37.232Z,3.00
2022-09-20T15:42:06.681Z,3.95
2022-09-20T15:44:34.351Z,4.55
2022-09-20T15:47:03.648Z,3.38
2022-09-20T15:49:30.677Z,4.55
2022-09-20T15:51:58.149Z,4.18
2022-09-20T15:54:25.381Z,3.45
2022-09-20T15:56:52.476Z,3.70
2022-09-20T15:59:19.895Z,4.07
2022-09-20T16:01:49.814Z,4.30
2022-09-20T16:04:19.050Z,4.07
2022-09-20T16:06:49.836Z,9.02
2022-09-20T16:09:21.012Z,5.28
2022-09-20T16:11:49.029Z,6.05
2022-09-20T16:14:18.482Z,6.50
2022-09-20T16:16:45.959Z,4.95
2022-09-20T16:19:13.796Z,7.63
2022-09-20T16:21:42.986Z,3.95
2022-09-20T16:24:13.527Z,4.63
2022-09-20T16:26:41.570Z,4.20
2022-09-20T16:29:09.500Z,4.10
2022-09-20T16:31:47.754Z,7.63
2022-09-20T16:34:23.318Z,4.60
2022-09-20T16:36:54.626Z,3.97
2022-09-20T16:39:23.565Z,5.18
2022-09-20T16:41:53.828Z,3.55
2022-09-20T16:44:21.310Z,9.30
2022-09-20T16:46:49.017Z,3.95
2022-09-20T16:49:16.218Z,5.65
2022-09-20T16:51:44.400Z,3.55
2022-09-20T16:54:14.688Z,7.05
2022-09-20T16:56:46.180Z,6.85
2022-09-20T16:59:15.506Z,5.43
2022-09-20T17:01:43.528Z,5.30
2022-09-20T17:04:11.726Z,18.67
2022-09-20T17:06:39.876Z,19.48
2022-09-20T17:09:07.812Z,13.02
2022-09-20T17:11:46.874Z,5.57
2022-09-20T17:14:15.791Z,8.18
2022-09-20T17:16:43.171Z,5.60
2022-09-20T17:19:13.240Z,5.03
2022-09-20T17:21:43.203Z,7.93
2022-09-20T17:24:11.164Z,8.75
2022-09-20T17:26:41.049Z,8.95
2022-09-20T17:29:11.112Z,7.68
2022-09-20T17:31:40.428Z,8.55
2022-09-20T17:34:10.805Z,6.50
2022-09-20T17:36:41.034Z,7.30
2022-09-20T17:39:10.354Z,6.57
2022-09-20T17:41:41.560Z,6.05
2022-09-20T17:44:09.240Z,7.38
2022-09-20T17:46:44.817Z,4.78
2022-09-20T17:49:17.282Z,7.72
2022-09-20T17:51:47.228Z,4.80
2022-09-20T17:54:17.492Z,7.88
2022-09-20T17:56:49.490Z,6.45
2022-09-20T17:59:18.340Z,4.88
2022-09-20T18:01:47.552Z,5.15
2022-09-20T18:04:18.866Z,4.00
2022-09-20T18:06:50.588Z,7.35
2022-09-20T18:09:20.864Z,9.05
2022-09-20T18:11:52.543Z,5.93
2022-09-20T18:14:22.876Z,9.15
2022-09-20T18:16:59.210Z,7.43
2022-09-20T18:19:26.985Z,8.80
2022-09-20T18:21:57.320Z,11.60
2022-09-20T18:24:24.568Z,43.42
2022-09-20T18:26:51.996Z,37.67
2022-09-20T18:29:20.218Z,10.63
2022-09-20T18:31:52.516Z,6.85
2022-09-20T18:34:25.412Z,7.88
2022-09-20T18:36:55.250Z,5.43
2022-09-20T18:39:35.151Z,8.23
2022-09-20T18:42:03.415Z,5.68
2022-09-20T18:44:30.846Z,5.05
2022-09-20T18:46:58.186Z,6.88
2022-09-20T18:49:25.720Z,14.32
2022-09-20T18:51:55.264Z,13.77
2022-09-20T18:54:22.521Z,7.63
2022-09-20T18:56:51.538Z,4.85
2022-09-20T18:59:24.109Z,8.45
2022-09-20T19:01:51.674Z,6.47
2022-09-20T19:04:27.610Z,6.78
2022-09-20T19:07:10.859Z,4.57
2022-09-20T19:10:08.782Z,6.15
2022-09-20T19:12:45.448Z,6.32
2022-09-20T19:15:37.556Z,7.60
2022-09-20T19:18:34.670Z,9.07
2022-09-20T19:21:10.458Z,5.25
2022-09-20T19:23:50.215Z,5.45
2022-09-20T19:26:24.614Z,8.13
2022-09-20T19:28:55.255Z,6.40
2022-09-20T19:31:27.000Z,5.43
2022-09-20T19:33:56.351Z,4.32
2022-09-20T19:36:31.617Z,7.63
2022-09-20T19:39:15.731Z,55.08
2022-09-20T19:41:50.626Z,47.58
2022-09-20T19:44:39.719Z,37.15
2022-09-20T19:47:15.446Z,9.23
2022-09-20T19:49:58.724Z,7.50
2022-09-20T19:52:28.257Z,6.90
2022-09-20T19:54:58.373Z,5.30
2022-09-20T19:57:42.162Z,5.82
2022-09-20T20:00:13.878Z,5.90
2022-09-20T20:02:42.816Z,6.30
2022-09-20T20:05:15.896Z,5.75
2022-09-20T20:07:52.688Z,6.10
2022-09-20T20:10:42.723Z,4.57
2022-09-20T20:13:20.223Z,5.32
2022-09-20T20:16:00.550Z,6.45
2022-09-20T20:18:47.420Z,4.00
2022-09-20T20:21:30.053Z,4.07
2022-09-20T20:24:03.688Z,4.70
2022-09-20T20:26:31.419Z,6.47
2022-09-20T20:28:58.852Z,5.50
2022-09-20T20:31:35.120Z,6.10
2022-09-20T20:34:05.204Z,5.28
2022-09-20T20:36:32.202Z,4.10
2022-09-20T20:38:59.210Z,4.15
2022-09-20T20:41:26.740Z,5.28
2022-09-20T20:43:53.833Z,3.92
2022-09-20T20:46:26.300Z,6.65
2022-09-20T20:48:53.785Z,6.47
2022-09-20T20:51:22.582Z,5.22
2022-09-20T20:53:52.053Z,5.32
2022-09-20T20:56:21.287Z,4.38
2022-09-20T20:58:51.079Z,4.60
2022-09-20T21:01:19.552Z,25.70
2022-09-20T21:03:49.276Z,19.30
2022-09-20T21:06:20.584Z,7.78
2022-09-20T21:08:49.779Z,4.85
2022-09-20T21:11:19.927Z,4.00
2022-09-20T21:13:46.972Z,5.40
2022-09-20T21:16:18.377Z,4.50
2022-09-20T21:18:47.439Z,18.95
2022-09-20T21:21:23.102Z,42.97
2022-09-20T21:23:52.672Z,42.30
2022-09-20T21:26:26.592Z,11.60
2022-09-20T21:28:58.739Z,7.03
2022-09-20T21:31:31.670Z,4.00
2022-09-20T21:33:59.447Z,3.80
2022-09-20T21:36:30.585Z,3.55
2022-09-20T21:38:57.643Z,6.38
2022-09-20T21:41:33.294Z,5.15
2022-09-20T21:44:02.307Z,3.70
2022-09-20T21:46:32.409Z,6.03
2022-09-20T21:49:05.344Z,6.78
2022-09-20T21:51:36.354Z,4.07
2022-09-20T21:54:06.038Z,4.88
2022-09-20T21:56:35.926Z,14.90
2022-09-20T21:59:04.614Z,7.05
2022-09-20T22:01:35.689Z,8.25
2022-09-20T22:04:11.790Z,8.23
2022-09-20T22:06:41.374Z,5.93
2022-09-20T22:09:10.184Z,6.07
2022-09-20T22:11:42.703Z,7.18
2022-09-20T22:14:11.311Z,7.90
2022-09-20T22:16:40.105Z,5.10
2022-09-20T22:19:09.214Z,4.85
2022-09-20T22:21:42.760Z,4.22
2022-09-20T22:24:11.517Z,6.82
2022-09-20T22:26:44.740Z,5.43
2022-09-20T22:29:12.499Z,3.58
2022-09-20T22:31:42.520Z,5.80
2022-09-20T22:34:09.534Z,5.20
2022-09-20T22:36:39.527Z,4.30
2022-09-20T22:39:08.647Z,3.97
2022-09-20T22:41:37.593Z,5.18
2022-09-20T22:44:05.787Z,5.45
2022-09-20T22:46:36.092Z,3.80
2022-09-20T22:49:05.820Z,4.22
2022-09-20T22:51:36.543Z,5.15
2022-09-20T22:54:10.391Z,5.35
2022-09-20T22:56:38.109Z,5.35
2022-09-20T22:59:06.585Z,4.07
2022-09-20T23:01:36.234Z,4.18
2022-09-20T23:04:05.085Z,5.85
2022-09-20T23:06:38.867Z,4.85
2022-09-20T23:09:08.961Z,4.70
2022-09-20T23:11:36.991Z,4.63
2022-09-20T23:14:06.935Z,4.25
2022-09-20T23:16:37.277Z,5.43
2022-09-20T23:19:06.145Z,6.40
2022-09-20T23:21:34.229Z,4.90
2022-09-20T23:24:04.015Z,4.38
2022-09-20T23:26:34.806Z,5.15
2022-09-20T23:29:10.116Z,4.78
2022-09-20T23:31:39.182Z,6.53
2022-09-20T23:34:11.474Z,8.57
2022-09-20T23:36:40.726Z,5.97
2022-09-20T23:39:09.294Z,6.22
2022-09-20T23:41:36.853Z,5.57
2022-09-20T23:44:05.514Z,6.20
2022-09-20T23:46:35.502Z,6.22
2022-09-20T23:49:05.775Z,5.40
2022-09-20T23:51:35.780Z,5.18
2022-09-20T23:54:06.017Z,5.63
2022-09-20T23:56:33.342Z,6.35
2022-09-20T23:59:00.370Z,5.40
